Time;durP1;ratioP1;P1;durP2;ratioP2;P2;SDS_P1;SDS_P2;PMS_P1;PMS_P2;Temp;Humidity;BMP_temperature;BMP_pressure;BME280_temperature;BME280_humidity;BME280_pressure;Samples;Min_cycle;Max_cycle;Signal;HPM_P1;HPM_P2
2023/02/04 00:00:20;;;;;;;5.28;4.15;;;;;;;3.43;100.00;96767.75;1034190;28;20034;-70
2023/02/04 00:00:51;;;;;;;4.60;3.70;;;;;;;3.41;100.00;96775.72;1030819;28;20973;-70
2023/02/04 00:01:21;;;;;;;4.45;3.53;;;;;;;3.43;100.00;96773.75;1029994;28;20281;-70
2023/02/04 00:01:51;;;;;;;4.93;3.88;;;;;;;3.44;100.00;96769.34;1030480;28;20027;-68
2023/02/04 00:02:22;;;;;;;5.38;4.10;;;;;;;3.42;100.00;96772.16;1030228;28;20038;-69
2023/02/04 00:02:52;;;;;;;5.40;3.45;;;;;;;3.41;100.00;96765.34;1034360;28;20538;-69
2023/02/04 00:03:23;;;;;;;5.28;3.90;;;;;;;3.43;100.00;96778.13;1033890;28;20041;-70
2023/02/04 00:03:53;;;;;;;5.32;4.07;;;;;;;3.42;100.00;96772.16;1030228;28;20558;-72
2023/02/04 00:04:24;;;;;;;5.53;4.05;;;;;;;3.35;100.00;96760.91;1031169;28;20033;-68
2023/02/04 00:04:54;;;;;;;4.50;3.55;;;;;;;3.41;100.00;96775.72;1029169;28;20034;-70
2023/02/04 00:05:25;;;;;;;5.35;3.97;;;;;;;3.41;100.00;96770.53;1034380;28;20470;-72
2023/02/04 00:05:55;;;;;;;5.72;3.85;;;;;;;3.41;100.00;96765.34;1034465;28;20036;-69
2023/02/04 00:06:26;;;;;;;6.72;4.18;;;;;;;3.41;100.00;96767.94;1025745;28;20042;-70
2023/02/04 00:06:56;;;;;;;4.75;3.55;;;;;;;3.41;100.00;96769.72;1029167;28;20037;-70
2023/02/04 00:07:27;;;;;;;5.30;4.00;;;;;;;3.39;100.00;96767.34;1033844;28;20918;-70
2023/02/04 00:07:57;;;;;;;5.05;3.70;;;;;;;3.24;100.00;96748.47;1030043;28;20030;-71
2023/02/04 00:08:28;;;;;;;4.68;3.88;;;;;;;3.42;100.00;96772.16;1034516;28;20431;-70
2023/02/04 00:08:58;;;;;;;4.47;3.67;;;;;;;3.40;100.00;96770.72;1038519;28;20064;-69
2023/02/04 00:09:29;;;;;;;6.20;3.70;;;;;;;3.40;100.00;96771.53;1041395;28;20029;-70
2023/02/04 00:09:59;;;;;;;5.88;3.80;;;;;;;3.44;100.00;96769.34;1042440;28;20029;-68
2023/02/04 00:10:30;;;;;;;5.53;4.00;;;;;;;3.42;100.00;96777.34;1038203;28;20861;-68
2023/02/04 00:11:00;;;;;;;5.50;3.63;;;;;;;3.40;100.00;96766.34;1034311;28;20036;-69
2023/02/04 00:11:30;;;;;;;4.82;3.80;;;;;;;3.36;100.00;96759.94;1038403;28;20033;-70
2023/02/04 00:12:01;;;;;;;7.53;4.22;;;;;;;3.41;100.00;96769.72;1030121;28;20034;-70
2023/02/04 00:12:32;;;;;;;7.28;4.30;;;;;;;3.35;100.00;96771.28;1034465;28;20065;-70
2023/02/04 00:13:03;;;;;;;5.18;3.72;;;;;;;3.23;100.00;96752.06;1030658;28;20123;-69
2023/02/04 00:13:33;;;;;;;4.72;3.55;;;;;;;3.41;100.00;96777.50;1026735;28;20294;-70
2023/02/04 00:14:04;;;;;;;4.88;3.80;;;;;;;3.41;100.00;96780.09;1030542;28;20463;-68
2023/02/04 00:14:34;;;;;;;5.13;3.80;;;;;;;3.41;100.00;96774.91;1030404;28;20128;-69
2023/02/04 00:15:05;;;;;;;5.07;4.03;;;;;;;3.40;100.00;96774.13;1034707;28;20092;-71
2023/02/04 00:15:35;;;;;;;6.20;4.35;;;;;;;3.40;100.00;96778.50;1034394;28;20057;-69
2023/02/04 00:16:06;;;;;;;5.55;4.05;;;;;;;3.40;100.00;96768.94;1042491;28;20048;-70
2023/02/04 00:16:36;;;;;;;4.72;3.58;;;;;;;3.40;100.00;96774.13;1042177;28;20289;-69
2023/02/04 00:17:09;;;;;;;6.03;4.05;;;;;;;3.33;100.00;96759.53;1042486;28;20035;-70
2023/02/04 00:17:39;;;;;;;6.35;4.00;;;;;;;3.42;100.00;96771.31;1034633;28;20040;-70
2023/02/04 00:18:10;;;;;;;5.43;4.10;;;;;;;3.41;100.00;96778.31;1033730;28;20304;-68
2023/02/04 00:18:40;;;;;;;4.75;3.80;;;;;;;3.43;100.00;96776.34;1033833;28;20419;-70
2023/02/04 00:19:11;;;;;;;5.47;3.85;;;;;;;3.42;100.00;96782.53;1033969;28;20029;-70
2023/02/04 00:19:41;;;;;;;6.82;4.53;;;;;;;3.42;100.00;96781.69;1032606;28;20072;-70
2023/02/04 00:20:12;;;;;;;5.45;4.35;;;;;;;3.41;100.00;96780.91;1030296;28;20123;-70
2023/02/04 00:20:42;;;;;;;5.28;4.05;;;;;;;3.42;100.00;96781.69;1035621;28;20542;-71
2023/02/04 00:21:13;;;;;;;5.60;4.20;;;;;;;3.42;100.00;96785.13;1040917;28;20048;-68
2023/02/04 00:21:43;;;;;;;5.70;4.15;;;;;;;3.41;100.00;96786.09;1035124;28;20502;-71
2023/02/04 00:22:14;;;;;;;5.05;3.65;;;;;;;3.41;100.00;96780.91;1034035;28;20057;-69
2023/02/04 00:22:44;;;;;;;6.30;4.13;;;;;;;3.40;100.00;96792.28;1030104;28;20034;-69
2023/02/04 00:23:15;;;;;;;5.43;3.97;;;;;;;3.38;100.00;96789.06;1029994;28;20636;-69
2023/02/04 00:23:45;;;;;;;5.55;4.13;;;;;;;3.36;100.00;96782.47;1034373;28;20041;-70
2023/02/04 00:24:16;;;;;;;5.07;4.07;;;;;;;3.34;100.00;96785.25;1042626;28;20406;-70
2023/02/04 00:24:48;;;;;;;5.13;3.92;;;;;;;3.41;100.00;96788.69;1041848;28;20048;-70
2023/02/04 00:25:19;;;;;;;5.63;4.03;;;;;;;3.42;100.00;96798.09;1038788;28;20037;-69
2023/02/04 00:25:49;;;;;;;7.80;3.78;;;;;;;3.34;100.00;96774.06;1042735;28;20256;-68
2023/02/04 00:26:20;;;;;;;5.05;4.10;;;;;;;3.38;100.00;96786.47;1038516;28;20029;-70
2023/02/04 00:26:50;;;;;;;6.97;4.55;;;;;;;3.38;100.00;96791.66;1030354;28;20096;-70
2023/02/04 00:27:21;;;;;;;6.22;4.07;;;;;;;3.38;100.00;96796.03;1034146;28;20764;-69
2023/02/04 00:27:51;;;;;;;5.75;4.20;;;;;;;3.37;100.00;96787.47;1034813;28;20036;-70
2023/02/04 00:28:22;;;;;;;6.15;4.40;;;;;;;3.39;100.00;96798.47;1034593;28;20029;-69
2023/02/04 00:28:52;;;;;;;6.63;4.40;;;;;;;3.41;100.00;96801.66;1034452;28;20034;-70
2023/02/04 00:29:23;;;;;;;7.70;4.00;;;;;;;3.40;100.00;96800.06;1030323;28;20392;-71
2023/02/04 00:29:53;;;;;;;7.15;4.28;;;;;;;3.40;100.00;96800.06;1030538;28;20037;-69
2023/02/04 00:30:24;;;;;;;7.75;4.70;;;;;;;3.38;100.00;96807.22;1030392;28;20030;-70
2023/02/04 00:30:54;;;;;;;9.10;4.63;;;;;;;3.38;100.00;96799.44;1029677;28;20507;-69
2023/02/04 00:31:25;;;;;;;5.97;4.40;;;;;;;3.39;100.00;96808.84;1034421;28;20034;-69
2023/02/04 00:31:55;;;;;;;8.48;4.55;;;;;;;3.40;100.00;96799.25;1034450;28;20034;-70
2023/02/04 00:32:26;;;;;;;7.93;4.72;;;;;;;3.29;100.00;96782.44;1032246;28;20065;-69
2023/02/04 00:32:56;;;;;;;6.75;4.28;;;;;;;3.34;100.00;96797.44;1030240;28;20026;-70
2023/02/04 00:33:27;;;;;;;6.80;4.70;;;;;;;3.38;100.00;96803.81;1030393;28;20472;-70
2023/02/04 00:33:58;;;;;;;7.88;4.75;;;;;;;3.40;100.00;96807.03;1030206;28;20030;-70
2023/02/04 00:34:29;;;;;;;6.95;4.88;;;;;;;3.37;100.00;96805.63;1029947;28;20280;-70
2023/02/04 00:35:00;;;;;;;7.05;4.78;;;;;;;3.39;100.00;96814.03;1026346;28;20029;-70
2023/02/04 00:35:31;;;;;;;9.57;4.85;;;;;;;3.42;100.00;96813.66;1025711;28;20130;-71
2023/02/04 00:36:01;;;;;;;7.88;4.85;;;;;;;3.43;100.00;96820.44;1029898;28;20281;-70
2023/02/04 00:36:32;;;;;;;6.20;4.93;;;;;;;3.43;100.00;96825.63;1034913;28;20022;-69
2023/02/04 00:37:02;;;;;;;7.25;4.68;;;;;;;3.37;100.00;96810.00;1037891;28;20029;-70
2023/02/04 00:37:33;;;;;;;6.97;4.95;;;;;;;3.43;100.00;96820.44;1030030;28;20022;-69
2023/02/04 00:38:04;;;;;;;8.48;4.85;;;;;;;3.37;100.00;96817.81;1026476;28;20596;-70
2023/02/04 00:38:34;;;;;;;7.00;5.30;;;;;;;3.44;100.00;96822.03;1026190;28;20093;-70
2023/02/04 00:39:05;;;;;;;6.80;4.88;;;;;;;3.44;100.00;96832.41;1026376;28;20340;-69
2023/02/04 00:39:35;;;;;;;10.98;5.40;;;;;;;3.42;100.00;96818.84;1022221;29;20023;-69
2023/02/04 00:40:06;;;;;;;7.82;4.82;;;;;;;3.41;100.00;96819.00;1022465;28;20023;-69
2023/02/04 00:40:37;;;;;;;7.32;5.25;;;;;;;3.46;100.00;96820.06;1026151;28;20118;-69
2023/02/04 00:41:07;;;;;;;6.93;4.57;;;;;;;3.45;100.00;96833.19;1029939;28;20606;-70
2023/02/04 00:41:37;;;;;;;7.30;5.18;;;;;;;3.41;100.00;96816.41;1030135;28;20037;-70
2023/02/04 00:42:08;;;;;;;9.30;4.75;;;;;;;3.47;100.00;96826.84;1030272;28;20045;-69
2023/02/04 00:42:38;;;;;;;8.30;5.28;;;;;;;3.51;100.00;96833.25;1033759;28;20554;-69
2023/02/04 00:43:09;;;;;;;8.35;5.22;;;;;;;3.47;100.00;96821.66;1038710;28;20529;-67
2023/02/04 00:43:39;;;;;;;7.05;4.75;;;;;;;3.50;100.00;96838.63;1042476;28;20037;-68
2023/02/04 00:44:10;;;;;;;6.40;4.32;;;;;;;3.50;100.00;96836.84;1034319;28;20053;-69
2023/02/04 00:44:43;;;;;;;7.60;5.25;;;;;;;3.50;100.00;96833.44;1034446;28;20065;-70
2023/02/04 00:45:14;;;;;;;6.53;4.55;;;;;;;3.51;100.00;96846.22;1035088;28;20046;-68
2023/02/04 00:45:45;;;;;;;7.75;4.72;;;;;;;3.52;100.00;96834.03;1034514;28;20780;-69
2023/02/04 00:46:15;;;;;;;7.13;4.45;;;;;;;3.51;100.00;96835.84;1030632;28;20822;-70
2023/02/04 00:46:47;;;;;;;7.10;4.32;;;;;;;3.51;100.00;96833.25;1034050;28;20026;-70
2023/02/04 00:47:18;;;;;;;7.07;4.00;;;;;;;3.49;100.00;96837.84;1034881;28;20084;-70
2023/02/04 00:47:48;;;;;;;6.70;4.70;;;;;;;3.47;100.00;96831.22;1039276;28;20291;-69
2023/02/04 00:48:19;;;;;;;6.45;4.53;;;;;;;3.50;100.00;96829.06;1038565;28;20030;-69
2023/02/04 00:48:50;;;;;;;9.25;4.68;;;;;;;3.50;100.00;96829.06;1034709;28;20065;-67
2023/02/04 00:49:20;;;;;;;7.05;4.22;;;;;;;3.53;100.00;96826.09;1038438;28;20064;-67
2023/02/04 00:49:50;;;;;;;7.05;3.60;;;;;;;3.53;100.00;96831.28;1034705;28;20034;-70
2023/02/04 00:50:21;;;;;;;8.02;4.70;;;;;;;3.52;100.00;96827.09;1042409;28;20445;-70
2023/02/04 00:50:52;;;;;;;7.78;4.43;;;;;;;3.53;100.00;96831.28;1030574;28;20034;-70
2023/02/04 00:51:23;;;;;;;6.18;4.45;;;;;;;3.50;100.00;96828.25;1034589;28;20033;-69
2023/02/04 00:51:53;;;;;;;7.18;4.70;;;;;;;3.52;100.00;96831.44;1034431;28;20281;-69
2023/02/04 00:52:24;;;;;;;6.45;4.32;;;;;;;3.51;100.00;96838.44;1030526;28;20038;-69
2023/02/04 00:52:54;;;;;;;8.65;4.63;;;;;;;3.52;100.00;96824.50;1036430;28;20061;-68
2023/02/04 00:53:25;;;;;;;4.90;3.97;;;;;;;3.54;100.00;96832.06;1030484;28;20026;-68
2023/02/04 00:53:55;;;;;;;6.97;4.53;;;;;;;3.53;100.00;96844.25;1034632;28;20029;-69
2023/02/04 00:54:26;;;;;;;6.80;3.92;;;;;;;3.50;100.00;96821.28;1043096;28;20091;-70
2023/02/04 00:54:56;;;;;;;6.53;3.65;;;;;;;3.53;100.00;96836.47;1038609;28;20041;-71
2023/02/04 00:55:27;;;;;;;6.57;3.53;;;;;;;3.53;100.00;96826.09;1042667;28;20040;-69
2023/02/04 00:55:57;;;;;;;2.95;1.42;;;;;;;3.51;100.00;96799.50;1038506;28;20033;-69
2023/02/04 00:56:28;;;;;;;6.43;2.70;;;;;;;3.63;100.00;96830.94;1042064;28;20025;-70
2023/02/04 00:56:58;;;;;;;3.35;2.65;;;;;;;3.65;100.00;96828.13;1029549;28;20041;-69
2023/02/04 00:57:29;;;;;;;8.50;3.90;;;;;;;3.55;100.00;96820.69;1022291;28;20461;-69
2023/02/04 00:57:59;;;;;;;5.05;3.20;;;;;;;3.62;100.00;96831.94;1028597;28;20031;-69
2023/02/04 00:58:30;;;;;;;4.80;3.20;;;;;;;3.61;100.00;96826.91;1030273;28;20615;-68
2023/02/04 00:59:00;;;;;;;5.57;3.45;;;;;;;3.62;100.00;96831.94;1026464;28;20030;-69
2023/02/04 00:59:31;;;;;;;6.43;3.35;;;;;;;3.62;100.00;96825.91;1031428;28;20045;-70
2023/02/04 01:00:01;;;;;;;5.18;3.20;;;;;;;3.61;100.00;96835.50;1034570;28;20547;-68
2023/02/04 01:00:31;;;;;;;8.75;3.38;;;;;;;3.63;100.00;96830.13;1030180;28;20041;-69
2023/02/04 01:01:02;;;;;;;5.38;3.00;;;;;;;3.61;100.00;96826.91;1038586;28;20036;-69
2023/02/04 01:01:33;;;;;;;4.82;2.70;;;;;;;3.62;100.00;96831.09;1037711;28;20821;-72
2023/02/04 01:02:03;;;;;;;4.57;2.83;;;;;;;3.64;100.00;96832.53;1038514;28;20601;-68
2023/02/04 01:02:34;;;;;;;4.63;2.72;;;;;;;3.60;100.00;96820.13;1038415;28;20071;-68
2023/02/04 01:03:04;;;;;;;6.47;2.97;;;;;;;3.67;100.00;96829.56;1034255;28;20026;-69
2023/02/04 01:03:35;;;;;;;5.00;2.97;;;;;;;3.67;100.00;96831.34;1034542;28;20052;-70
2023/02/04 01:04:05;;;;;;;5.57;3.25;;;;;;;3.67;100.00;96826.94;1038586;28;20538;-70
2023/02/04 01:04:38;;;;;;;5.25;3.08;;;;;;;3.66;100.00;96829.75;1032480;28;20025;-68
2023/02/04 01:05:09;;;;;;;5.38;3.00;;;;;;;3.63;100.00;96830.13;1034309;28;20026;-69
2023/02/04 01:05:39;;;;;;;3.60;2.80;;;;;;;3.63;100.00;96827.53;1030589;28;21163;-69
2023/02/04 01:06:10;;;;;;;4.20;3.38;;;;;;;3.54;100.00;96814.69;1030834;28;20742;-69
2023/02/04 01:06:41;;;;;;;4.75;3.53;;;;;;;3.62;100.00;96823.31;1025820;28;20105;-68
2023/02/04 01:07:11;;;;;;;4.15;3.03;;;;;;;3.61;100.00;96827.72;1030531;28;20045;-70
2023/02/04 01:07:42;;;;;;;7.40;3.20;;;;;;;3.60;100.00;96820.13;1034375;28;20364;-68
2023/02/04 01:08:12;;;;;;;4.88;3.08;;;;;;;3.61;100.00;96829.50;1030369;28;20042;-68
2023/02/04 01:08:42;;;;;;;5.95;3.25;;;;;;;3.60;100.00;96825.31;1033918;28;20554;-69
2023/02/04 01:09:13;;;;;;;6.68;2.53;;;;;;;3.56;100.00;96819.72;1038356;28;20057;-68
2023/02/04 01:09:43;;;;;;;4.18;2.50;;;;;;;3.65;100.00;96828.94;1034328;28;20034;-69
2023/02/04 01:10:15;;;;;;;4.28;2.65;;;;;;;3.63;100.00;96827.53;1042387;28;20033;-67
2023/02/04 01:10:45;;;;;;;5.60;2.72;;;;;;;3.63;100.00;96827.53;1034147;28;20041;-70
2023/02/04 01:11:16;;;;;;;4.97;2.83;;;;;;;3.61;100.00;96832.09;1030409;28;20509;-67
2023/02/04 01:11:46;;;;;;;5.10;2.83;;;;;;;3.63;100.00;96836.13;1030403;28;20033;-68
2023/02/04 01:12:17;;;;;;;5.60;3.22;;;;;;;3.61;100.00;96842.50;1029882;28;20484;-70
2023/02/04 01:12:47;;;;;;;8.60;2.70;;;;;;;3.63;100.00;96841.31;1030048;28;20034;-69
2023/02/04 01:13:18;;;;;;;8.55;3.15;;;;;;;3.57;100.00;96818.72;1022434;28;20074;-68
2023/02/04 01:13:48;;;;;;;4.47;2.97;;;;;;;3.55;100.00;96828.47;1038247;28;20458;-69
2023/02/04 01:14:18;;;;;;;6.47;3.10;;;;;;;3.61;100.00;96843.28;1030250;28;20026;-68
2023/02/04 01:14:49;;;;;;;7.15;3.13;;;;;;;3.61;100.00;96845.09;1030267;28;20041;-69
2023/02/04 01:15:21;;;;;;;12.88;3.17;;;;;;;3.59;100.00;96839.28;1033956;28;20391;-69
2023/02/04 01:15:52;;;;;;;6.45;3.20;;;;;;;3.50;100.00;96839.44;1026852;28;20492;-68
2023/02/04 01:16:22;;;;;;;9.23;3.78;;;;;;;3.54;100.00;96852.81;1030667;28;20261;-70
2023/02/04 01:16:52;;;;;;;6.00;3.10;;;;;;;3.53;100.00;96852.03;1029866;28;20638;-68
2023/02/04 01:17:23;;;;;;;9.05;3.63;;;;;;;3.54;100.00;96851.03;1034343;28;20049;-68
2023/02/04 01:17:53;;;;;;;8.55;3.85;;;;;;;3.56;100.00;96855.25;1034302;28;20478;-69
2023/02/04 01:18:24;;;;;;;9.50;3.60;;;;;;;3.54;100.00;96855.41;1038558;28;20021;-68
2023/02/04 01:18:54;;;;;;;7.18;3.42;;;;;;;3.53;100.00;96857.22;1038235;28;20026;-68
2023/02/04 01:19:25;;;;;;;6.40;3.40;;;;;;;3.54;100.00;96853.63;1038553;28;20030;-70
2023/02/04 01:19:55;;;;;;;7.70;3.85;;;;;;;3.54;100.00;96863.22;1042510;28;20111;-69
2023/02/04 01:20:26;;;;;;;7.88;3.53;;;;;;;3.53;100.00;96857.22;1046626;28;20024;-70
2023/02/04 01:20:56;;;;;;;6.53;3.55;;;;;;;3.57;100.00;96864.63;1042432;28;20052;-70
2023/02/04 01:21:27;;;;;;;8.95;3.72;;;;;;;3.53;100.00;96862.41;1042549;28;20033;-69
2023/02/04 01:21:57;;;;;;;9.10;3.80;;;;;;;3.55;100.00;96857.03;1042317;28;20492;-69
2023/02/04 01:22:28;;;;;;;9.20;3.55;;;;;;;3.47;100.00;96849.41;1042456;28;20044;-67
2023/02/04 01:22:58;;;;;;;6.57;3.33;;;;;;;3.54;100.00;96853.63;1038213;28;20486;-69
2023/02/04 01:23:29;;;;;;;8.82;3.53;;;;;;;3.57;100.00;96854.25;1030035;28;20037;-68
2023/02/04 01:23:59;;;;;;;9.40;3.15;;;;;;;3.56;100.00;96863.84;1030100;28;20058;-68
2023/02/04 01:24:30;;;;;;;8.40;3.42;;;;;;;3.54;100.00;96856.22;1034357;28;20104;-69
2023/02/04 01:25:00;;;;;;;9.40;3.72;;;;;;;3.50;100.00;96849.81;1038507;28;20036;-70
2023/02/04 01:25:30;;;;;;;10.52;3.53;;;;;;;3.50;100.00;96857.59;1042129;28;20040;-67
2023/02/04 01:26:01;;;;;;;7.90;3.25;;;;;;;3.51;100.00;96856.59;1042553;28;20036;-69
2023/02/04 01:26:31;;;;;;;6.93;3.10;;;;;;;3.52;100.00;96860.00;1046564;28;20477;-70
2023/02/04 01:27:02;;;;;;;7.95;3.15;;;;;;;3.57;100.00;96859.44;1041834;28;20025;-68
2023/02/04 01:27:32;;;;;;;4.78;3.00;;;;;;;3.59;100.00;96860.03;1042204;28;20506;-69
2023/02/04 01:28:03;;;;;;;6.55;3.38;;;;;;;3.62;100.00;96859.66;1038343;28;20042;-69
2023/02/04 01:28:34;;;;;;;8.57;3.15;;;;;;;3.61;100.00;96858.84;1038413;28;20680;-70
2023/02/04 01:29:04;;;;;;;8.68;2.78;;;;;;;3.58;100.00;96850.66;1040914;28;20526;-69
2023/02/04 01:29:34;;;;;;;7.45;2.78;;;;;;;3.62;100.00;96863.06;1042072;28;20028;-68
2023/02/04 01:30:05;;;;;;;10.57;3.03;;;;;;;3.63;100.00;96856.88;1034353;28;20041;-68
2023/02/04 01:30:36;;;;;;;6.40;2.75;;;;;;;3.66;100.00;96863.50;1034406;28;20034;-68
2023/02/04 01:31:06;;;;;;;9.18;3.05;;;;;;;3.67;100.00;96865.09;1042391;28;20127;-70
2023/02/04 01:31:37;;;;;;;9.98;2.60;;;;;;;3.66;100.00;96866.09;1038272;28;20029;-68
2023/02/04 01:32:07;;;;;;;10.13;3.60;;;;;;;3.67;100.00;96860.69;1042437;28;20097;-68
2023/02/04 01:32:38;;;;;;;7.40;2.90;;;;;;;3.68;100.00;96869.28;1038153;28;20479;-70
2023/02/04 01:33:08;;;;;;;6.70;2.75;;;;;;;3.68;100.00;96869.28;1034212;28;20054;-69
2023/02/04 01:33:39;;;;;;;7.53;2.72;;;;;;;3.64;100.00;96862.88;1034207;28;20116;-69
2023/02/04 01:34:09;;;;;;;9.70;2.80;;;;;;;3.70;100.00;96875.09;1031824;28;20053;-68
2023/02/04 01:34:40;;;;;;;7.68;2.92;;;;;;;3.72;100.00;96875.69;1026198;28;20042;-68
2023/02/04 01:35:10;;;;;;;10.15;3.45;;;;;;;3.68;100.00;96874.47;1030319;28;20149;-68
2023/02/04 01:35:41;;;;;;;7.93;3.00;;;;;;;3.70;100.00;96875.09;1030242;28;20030;-69
2023/02/04 01:36:11;;;;;;;5.45;2.72;;;;;;;3.69;100.00;96871.69;1034361;28;20053;-69
2023/02/04 01:36:42;;;;;;;8.80;2.50;;;;;;;3.71;100.00;96881.88;1041862;28;20033;-69
2023/02/04 01:37:12;;;;;;;4.82;2.70;;;;;;;3.71;100.00;96874.88;1038293;28;20034;-69
2023/02/04 01:37:43;;;;;;;6.97;2.35;;;;;;;3.73;100.00;96877.31;1038340;28;20037;-68
2023/02/04 01:38:13;;;;;;;7.60;2.80;;;;;;;3.72;100.00;96876.50;1042250;28;20029;-70
2023/02/04 01:38:44;;;;;;;4.97;2.58;;;;;;;3.73;100.00;96885.09;1042411;28;20513;-70
2023/02/04 01:39:14;;;;;;;4.38;2.80;;;;;;;3.75;100.00;96885.69;1042274;28;20063;-70
2023/02/04 01:39:45;;;;;;;8.93;2.63;;;;;;;3.74;100.00;96891.88;1042709;28;20036;-69
2023/02/04 01:40:15;;;;;;;7.65;2.58;;;;;;;3.66;100.00;96879.06;1050549;28;20027;-67
2023/02/04 01:40:46;;;;;;;10.07;3.22;;;;;;;3.75;100.00;96878.69;1042423;28;20036;-68
2023/02/04 01:41:17;;;;;;;8.02;2.35;;;;;;;3.71;100.00;96880.06;1042416;28;20024;-68
2023/02/04 01:41:47;;;;;;;13.35;2.58;;;;;;;3.76;100.00;96890.72;1034191;28;20479;-70
2023/02/04 01:42:18;;;;;;;9.20;2.70;;;;;;;3.63;100.00;96871.66;1034265;28;20037;-68
2023/02/04 01:42:48;;;;;;;9.98;3.00;;;;;;;3.78;100.00;96885.31;1038114;28;20037;-69
2023/02/04 01:43:21;;;;;;;5.45;2.53;;;;;;;3.78;100.00;96883.50;1030038;28;20415;-69
2023/02/04 01:43:51;;;;;;;9.57;2.83;;;;;;;3.80;100.00;96895.53;1022249;28;20110;-68
2023/02/04 01:44:22;;;;;;;13.70;2.83;;;;;;;3.81;100.00;96890.13;1026252;28;20274;-68
2023/02/04 01:44:52;;;;;;;8.73;2.70;;;;;;;3.75;100.00;96880.50;1026895;28;20606;-69
2023/02/04 01:45:23;;;;;;;8.82;2.13;;;;;;;3.76;100.00;96893.31;1030541;28;20037;-69
2023/02/04 01:45:53;;;;;;;7.82;2.60;;;;;;;3.74;100.00;96879.69;1034066;28;20777;-69
2023/02/04 01:46:24;;;;;;;14.27;2.78;;;;;;;3.73;100.00;96879.91;1030077;28;20807;-69
2023/02/04 01:46:54;;;;;;;7.90;2.55;;;;;;;3.72;100.00;96883.47;1029480;28;20019;-69
2023/02/04 01:47:24;;;;;;;10.13;2.75;;;;;;;3.76;100.00;96882.91;1034298;28;20033;-70
2023/02/04 01:47:55;;;;;;;10.35;2.40;;;;;;;3.77;100.00;96887.09;1034060;28;20033;-70
2023/02/04 01:48:25;;;;;;;9.35;2.55;;;;;;;3.74;100.00;96868.53;1030255;28;20472;-69
2023/02/04 01:48:56;;;;;;;7.30;2.33;;;;;;;3.76;100.00;96882.91;1034221;28;20025;-69
2023/02/04 01:49:26;;;;;;;9.77;2.38;;;;;;;3.83;100.00;96893.34;1038185;28;20037;-67
2023/02/04 01:49:57;;;;;;;8.10;2.13;;;;;;;3.81;100.00;96889.31;1034101;28;20052;-68
2023/02/04 01:50:27;;;;;;;15.10;2.88;;;;;;;3.81;100.00;96884.94;1030200;28;20026;-69
2023/02/04 01:51:02;;;;;;;13.18;3.15;;;;;;;3.82;100.00;96896.13;1022073;29;20457;-69
2023/02/04 01:51:33;;;;;;;10.40;2.10;;;;;;;3.78;100.00;96885.31;1030317;28;20037;-68
2023/02/04 01:52:03;;;;;;;8.77;3.13;;;;;;;3.78;100.00;96893.09;1034316;28;20350;-69
2023/02/04 01:52:35;;;;;;;16.75;2.80;;;;;;;3.82;100.00;96896.91;1030035;28;20678;-68
2023/02/04 01:53:06;;;;;;;9.95;3.03;;;;;;;3.82;100.00;96896.91;1029487;28;20424;-69
2023/02/04 01:53:36;;;;;;;8.50;2.20;;;;;;;3.83;100.00;96902.94;1030102;28;20280;-68
2023/02/04 01:54:10;;;;;;;11.75;2.60;;;;;;;3.69;100.00;96881.25;1034193;28;20041;-68
2023/02/04 01:54:40;;;;;;;12.65;2.30;;;;;;;3.72;100.00;96889.50;1030315;28;20708;-67
2023/02/04 01:55:15;;;;;;;9.55;2.30;;;;;;;3.78;100.00;96895.69;1030744;28;20341;-69
2023/02/04 01:55:47;;;;;;;11.13;2.78;;;;;;;3.78;100.00;96900.88;1030206;28;20061;-69
2023/02/04 01:56:19;;;;;;;12.05;3.03;;;;;;;3.74;100.00;96889.28;1030734;28;20679;-70
2023/02/04 01:56:50;;;;;;;7.15;2.20;;;;;;;3.83;100.00;96905.53;1033451;28;20372;-69
2023/02/04 01:57:20;;;;;;;8.23;2.78;;;;;;;3.83;100.00;96893.34;1030221;28;20366;-69
2023/02/04 01:57:57;;;;;;;6.18;2.38;;;;;;;3.87;100.00;96904.94;1026610;28;20270;-70
2023/02/04 01:58:29;;;;;;;17.77;2.88;;;;;;;3.77;100.00;96894.09;1034313;28;20061;-68
2023/02/04 01:59:00;;;;;;;8.18;2.63;;;;;;;3.81;100.00;96900.50;1029732;28;20261;-70
2023/02/04 01:59:30;;;;;;;10.63;2.90;;;;;;;3.78;100.00;96901.69;1034099;28;20264;-67
2023/02/04 02:00:00;;;;;;;13.93;3.38;;;;;;;3.76;100.00;96908.88;1038168;28;20056;-70
2023/02/04 02:00:31;;;;;;;9.02;1.98;;;;;;;3.71;100.00;96905.25;1030151;28;20030;-68
2023/02/04 02:01:08;;;;;;;8.55;2.55;;;;;;;3.75;100.00;96914.25;1026056;28;20126;-68
2023/02/04 02:01:42;;;;;;;7.35;2.17;;;;;;;3.65;100.00;96896.41;1029570;28;20026;-69
2023/02/04 02:02:39;;;;;;;10.18;2.70;;;;;;;3.70;100.00;96914.81;1026113;28;20285;-70
2023/02/04 02:03:10;;;;;;;12.70;2.50;;;;;;;3.68;100.00;96910.81;1028046;28;20313;-68
2023/02/04 02:03:41;;;;;;;9.48;2.78;;;;;;;3.66;100.00;96910.22;1034067;28;20288;-68
2023/02/04 02:04:17;;;;;;;12.73;2.60;;;;;;;3.66;100.00;96915.41;1033814;28;20296;-69
2023/02/04 02:04:47;;;;;;;12.27;3.05;;;;;;;3.65;100.00;96911.19;1034899;28;20384;-69
2023/02/04 02:05:30;;;;;;;13.82;2.60;;;;;;;3.58;100.00;96889.56;1038088;28;20294;-70
2023/02/04 02:06:00;;;;;;;8.25;2.47;;;;;;;3.69;100.00;96915.00;1038815;28;20112;-69
2023/02/04 02:06:31;;;;;;;15.73;2.67;;;;;;;3.67;100.00;96906.63;1035739;28;20273;-68
2023/02/04 02:07:03;;;;;;;9.20;2.90;;;;;;;3.63;100.00;96902.81;1037331;28;20029;-69
2023/02/04 02:07:33;;;;;;;11.73;2.63;;;;;;;3.66;100.00;96907.63;1034323;28;20913;-72
2023/02/04 02:08:04;;;;;;;8.90;2.75;;;;;;;3.62;100.00;96908.97;1034389;28;20307;-70
2023/02/04 02:08:35;;;;;;;16.05;4.00;;;;;;;3.46;100.00;96877.13;1034543;28;20704;-67
2023/02/04 02:09:06;;;;;;;11.52;3.20;;;;;;;3.62;100.00;96899.41;1029994;28;20269;-70
2023/02/04 02:09:36;;;;;;;12.90;3.58;;;;;;;3.63;100.00;96903.59;1030068;28;20861;-68
2023/02/04 02:10:08;;;;;;;9.88;2.88;;;;;;;3.65;100.00;96909.38;1034010;28;20029;-70
2023/02/04 02:10:43;;;;;;;4.18;2.50;;;;;;;3.65;100.00;96903.41;1025830;28;20019;-70
2023/02/04 02:11:13;;;;;;;12.00;2.90;;;;;;;3.65;100.00;96900.78;1021917;29;20852;-71
2023/02/04 02:11:44;;;;;;;13.60;2.92;;;;;;;3.71;100.00;96905.25;1026065;28;20265;-69
2023/02/04 02:12:14;;;;;;;12.63;2.72;;;;;;;3.72;100.00;96905.06;1033218;28;20391;-70
2023/02/04 02:12:44;;;;;;;12.52;2.63;;;;;;;3.67;100.00;96899.63;1029956;28;20025;-68
2023/02/04 02:13:16;;;;;;;11.32;3.15;;;;;;;3.70;100.00;96901.03;1034077;28;20038;-68
2023/02/04 02:13:47;;;;;;;8.98;2.58;;;;;;;3.69;100.00;96902.84;1027737;28;20026;-67
2023/02/04 02:14:17;;;;;;;10.15;3.20;;;;;;;3.68;100.00;96903.81;1030320;28;20258;-69
2023/02/04 02:14:48;;;;;;;12.90;3.10;;;;;;;3.67;100.00;96904.03;1034134;28;20133;-69
2023/02/04 02:15:18;;;;;;;11.75;3.08;;;;;;;3.69;100.00;96907.22;1033841;28;20033;-70
2023/02/04 02:15:49;;;;;;;9.00;2.67;;;;;;;3.68;100.00;96901.22;1042402;28;20075;-69
2023/02/04 02:16:19;;;;;;;8.43;2.20;;;;;;;3.70;100.00;96903.66;1038157;28;20033;-69
2023/02/04 02:16:50;;;;;;;10.18;2.85;;;;;;;3.70;100.00;96899.25;1029526;28;20702;-68
2023/02/04 02:17:20;;;;;;;9.55;2.90;;;;;;;3.72;100.00;96904.25;1032838;28;20552;-68
2023/02/04 02:17:52;;;;;;;9.02;3.10;;;;;;;3.67;100.00;96904.81;1030113;28;20023;-69
2023/02/04 02:18:24;;;;;;;8.88;2.92;;;;;;;3.65;100.00;96895.59;1034192;28;20071;-68
2023/02/04 02:18:56;;;;;;;12.63;3.00;;;;;;;3.69;100.00;96900.25;1037993;28;20268;-70
2023/02/04 02:19:29;;;;;;;11.32;3.70;;;;;;;3.74;100.00;96910.06;1034138;28;20330;-68
2023/02/04 02:20:00;;;;;;;9.85;2.92;;;;;;;3.77;100.00;96901.88;1026017;28;21052;-68
2023/02/04 02:20:30;;;;;;;11.13;2.88;;;;;;;3.78;100.00;96904.28;1023231;28;20275;-70
2023/02/04 02:21:04;;;;;;;9.90;3.13;;;;;;;3.74;100.00;96899.66;1025961;28;20031;-68
2023/02/04 02:21:38;;;;;;;10.82;3.00;;;;;;;3.85;100.00;96916.50;1030209;28;20022;-67
2023/02/04 02:22:23;;;;;;;15.77;3.75;;;;;;;3.83;100.00;96910.72;1027399;28;20278;-68
2023/02/04 02:23:16;;;;;;;5.53;2.55;;;;;;;3.83;100.00;96908.13;1028741;28;20692;-69
2023/02/04 02:23:56;;;;;;;10.93;2.58;;;;;;;3.81;100.00;96905.69;1035795;28;20269;-69
2023/02/04 02:24:28;;;;;;;12.68;4.00;;;;;;;3.87;100.00;96904.16;1039188;28;20271;-68
2023/02/04 02:24:58;;;;;;;7.00;2.83;;;;;;;3.83;100.00;96897.75;1038635;28;20746;-69
2023/02/04 02:25:29;;;;;;;9.02;2.85;;;;;;;3.84;100.00;96914.91;1035420;28;20277;-68
2023/02/04 02:25:59;;;;;;;7.22;2.65;;;;;;;3.87;100.00;96917.91;1031022;28;20484;-67